createdAt,value
2023-01-10T00:02:35.341Z,7.50
2023-01-10T00:05:23.247Z,7.50
2023-01-10T00:08:15.407Z,7.60
2023-01-10T00:11:20.659Z,7.60
2023-01-10T00:14:06.454Z,7.70
2023-01-10T00:16:51.759Z,7.60
2023-01-10T00:19:37.118Z,7.60
2023-01-10T00:22:25.108Z,7.60
2023-01-10T00:25:13.312Z,7.70
2023-01-10T00:28:17.272Z,7.70
2023-01-10T00:31:06.878Z,7.70
2023-01-10T00:33:52.196Z,7.60
2023-01-10T00:36:37.764Z,7.60
2023-01-10T00:39:27.145Z,7.70
2023-01-10T00:42:31.413Z,7.70
2023-01-10T00:45:17.036Z,7.60
2023-01-10T00:48:03.094Z,7.50
2023-01-10T00:50:51.611Z,7.50
2023-01-10T00:53:37.171Z,7.50
2023-01-10T00:56:23.058Z,7.60
2023-01-10T00:59:09.478Z,7.60
2023-01-10T01:01:55.091Z,7.50
2023-01-10T01:04:40.823Z,7.50
2023-01-10T01:07:31.305Z,7.50
2023-01-10T01:10:29.306Z,7.50
2023-01-10T01:13:21.677Z,7.50
2023-01-10T01:16:07.660Z,7.50
2023-01-10T01:18:55.289Z,7.50
2023-01-10T01:21:41.181Z,7.50
2023-01-10T01:24:26.431Z,7.40
2023-01-10T01:27:11.940Z,7.40
2023-01-10T01:29:57.847Z,7.30
2023-01-10T01:32:45.641Z,7.20
2023-01-10T01:35:33.328Z,7.00
2023-01-10T01:38:18.992Z,7.00
2023-01-10T01:41:25.379Z,7.10
2023-01-10T01:44:16.537Z,6.90
2023-01-10T01:47:11.545Z,6.90
2023-01-10T01:49:57.077Z,6.90
2023-01-10T01:52:47.630Z,6.90
2023-01-10T01:55:38.368Z,6.90
2023-01-10T01:58:33.238Z,7.00
2023-01-10T02:01:19.254Z,7.00
2023-01-10T02:04:29.607Z,6.90
2023-01-10T02:07:15.209Z,6.80
2023-01-10T02:10:26.751Z,6.70
2023-01-10T02:13:18.247Z,6.60
2023-01-10T02:16:03.759Z,6.50
2023-01-10T02:18:49.238Z,6.60
2023-01-10T02:22:15.019Z,6.60
2023-01-10T02:25:38.202Z,6.70
2023-01-10T02:28:42.271Z,6.80
2023-01-10T02:31:32.821Z,7.00
2023-01-10T02:34:41.339Z,6.90
2023-01-10T02:38:05.870Z,6.80
2023-01-10T02:40:57.386Z,6.60
2023-01-10T02:43:50.772Z,6.60
2023-01-10T02:46:38.681Z,6.80
2023-01-10T02:49:24.070Z,6.60
2023-01-10T02:52:10.785Z,6.60
2023-01-10T02:55:01.054Z,6.50
2023-01-10T02:57:56.542Z,6.50
2023-01-10T03:01:03.575Z,6.70
2023-01-10T03:04:16.552Z,6.70
2023-01-10T03:07:23.800Z,6.80
2023-01-10T03:10:31.089Z,6.90
2023-01-10T03:13:25.340Z,7.00
2023-01-10T03:16:30.451Z,6.90
2023-01-10T03:19:22.855Z,6.90
2023-01-10T03:22:11.161Z,6.80
2023-01-10T03:25:01.781Z,6.80
2023-01-10T03:28:09.521Z,6.90
2023-01-10T03:31:06.266Z,6.90
2023-01-10T03:33:55.615Z,7.00
2023-01-10T03:36:41.122Z,7.10
2023-01-10T03:39:41.598Z,7.00
2023-01-10T03:42:56.621Z,7.00
2023-01-10T03:45:58.528Z,7.10
2023-01-10T03:48:46.733Z,7.10
2023-01-10T03:51:37.445Z,7.10
2023-01-10T03:54:22.815Z,7.10
2023-01-10T03:57:08.083Z,7.10
2023-01-10T03:59:57.760Z,7.20
2023-01-10T04:02:44.309Z,7.20
2023-01-10T04:05:29.906Z,7.20
2023-01-10T04:08:18.035Z,7.20
2023-01-10T04:11:04.437Z,7.10
2023-01-10T04:13:49.743Z,7.20
2023-01-10T04:16:35.356Z,7.20
2023-01-10T04:19:22.946Z,7.10
2023-01-10T04:22:11.540Z,7.20
2023-01-10T04:24:59.259Z,7.20
2023-01-10T04:27:44.833Z,7.10
2023-01-10T04:30:30.358Z,7.10
2023-01-10T04:33:15.837Z,7.10
2023-01-10T04:36:01.230Z,7.10
2023-01-10T04:38:46.994Z,7.10
2023-01-10T04:41:35.259Z,7.00
2023-01-10T04:44:22.921Z,7.00
2023-01-10T04:47:10.367Z,7.00
2023-01-10T04:49:55.940Z,6.90
2023-01-10T04:52:41.941Z,6.90
2023-01-10T04:55:27.628Z,6.90
2023-01-10T04:58:15.938Z,6.90
2023-01-10T05:01:09.370Z,7.00
2023-01-10T05:03:55.759Z,7.00
2023-01-10T05:06:41.551Z,7.10
2023-01-10T05:09:31.501Z,7.10
2023-01-10T05:12:16.863Z,7.10
2023-01-10T05:15:02.174Z,7.10
2023-01-10T05:17:47.693Z,7.10
2023-01-10T05:20:33.096Z,7.10
2023-01-10T05:23:18.924Z,7.10
2023-01-10T05:26:12.687Z,7.20
2023-01-10T05:29:00.248Z,7.30
2023-01-10T05:31:47.691Z,7.20
2023-01-10T05:34:35.694Z,7.30
2023-01-10T05:37:20.907Z,7.30
2023-01-10T05:40:07.318Z,7.30
2023-01-10T05:42:52.526Z,7.30
2023-01-10T05:45:38.959Z,7.30
2023-01-10T05:48:24.956Z,7.30
2023-01-10T05:51:12.753Z,7.30
2023-01-10T05:53:58.854Z,7.30
2023-01-10T05:56:44.073Z,7.30
2023-01-10T05:59:30.102Z,7.30
2023-01-10T06:02:17.987Z,7.30
2023-01-10T06:05:04.466Z,7.30
2023-01-10T06:07:52.713Z,7.20
2023-01-10T06:10:38.048Z,7.30
2023-01-10T06:13:26.270Z,7.30
2023-01-10T06:16:11.859Z,7.30
2023-01-10T06:18:57.301Z,7.30
2023-01-10T06:21:42.720Z,7.40
2023-01-10T06:24:28.135Z,7.40
2023-01-10T06:27:16.038Z,7.40
2023-01-10T06:30:01.730Z,7.40
2023-01-10T06:32:47.609Z,7.40
2023-01-10T06:35:35.780Z,7.20
2023-01-10T06:38:21.201Z,7.30
2023-01-10T06:41:16.169Z,7.20
2023-01-10T06:44:02.730Z,7.20
2023-01-10T06:46:48.823Z,7.20
2023-01-10T06:49:36.584Z,7.30
2023-01-10T06:52:21.911Z,7.30
2023-01-10T06:55:10.133Z,7.20
2023-01-10T06:57:58.970Z,7.20
2023-01-10T07:00:44.275Z,7.30
2023-01-10T07:03:34.779Z,7.40
2023-01-10T07:06:20.567Z,7.40
2023-01-10T07:09:07.548Z,7.40
2023-01-10T07:11:52.901Z,7.40
2023-01-10T07:14:40.332Z,7.40
2023-01-10T07:17:25.605Z,7.30
2023-01-10T07:20:11.841Z,7.30
2023-01-10T07:22:59.020Z,7.30
2023-01-10T07:25:46.732Z,7.20
2023-01-10T07:28:34.448Z,7.20
2023-01-10T07:31:23.022Z,7.20
2023-01-10T07:34:13.934Z,7.20
2023-01-10T07:36:59.120Z,7.00
2023-01-10T07:39:45.222Z,7.10
2023-01-10T07:42:30.640Z,7.10
2023-01-10T07:45:16.266Z,7.10
2023-01-10T07:48:04.484Z,7.10
2023-01-10T07:50:49.676Z,7.10
2023-01-10T07:53:35.332Z,7.00
2023-01-10T07:56:21.050Z,7.10
2023-01-10T07:59:06.630Z,7.20
2023-01-10T08:01:56.468Z,7.20
2023-01-10T08:04:43.976Z,7.30
2023-01-10T08:07:30.804Z,7.40
2023-01-10T08:10:21.623Z,7.40
2023-01-10T08:13:18.376Z,7.50
2023-01-10T08:16:08.581Z,7.50
2023-01-10T08:18:54.030Z,7.50
2023-01-10T08:21:39.685Z,7.60
2023-01-10T08:24:25.232Z,7.60
2023-01-10T08:27:11.666Z,7.50
2023-01-10T08:29:57.048Z,7.50
2023-01-10T08:32:44.731Z,7.50
2023-01-10T08:35:30.689Z,7.40
2023-01-10T08:38:18.640Z,7.60
2023-01-10T08:41:04.439Z,7.50
2023-01-10T08:43:50.876Z,7.40
2023-01-10T08:46:37.483Z,7.50
2023-01-10T08:49:23.786Z,7.40
2023-01-10T08:52:09.811Z,7.50
2023-01-10T08:54:56.109Z,7.50
2023-01-10T08:57:41.952Z,7.50
2023-01-10T09:00:27.700Z,7.60
2023-01-10T09:03:13.271Z,7.40
2023-01-10T09:06:00.337Z,7.60
2023-01-10T09:08:45.657Z,7.60
2023-01-10T09:11:31.313Z,7.90
2023-01-10T09:14:16.953Z,7.80
2023-01-10T09:17:02.607Z,7.70
2023-01-10T09:19:48.121Z,7.80
2023-01-10T09:22:33.891Z,7.80
2023-01-10T09:25:19.873Z,7.80
2023-01-10T09:28:08.701Z,7.70
2023-01-10T09:30:55.367Z,7.70
2023-01-10T09:33:47.165Z,7.70
2023-01-10T09:36:35.611Z,7.70
2023-01-10T09:39:22.487Z,7.70
2023-01-10T09:42:20.675Z,7.60
2023-01-10T09:45:20.854Z,7.70
2023-01-10T09:48:13.307Z,7.70
2023-01-10T09:51:35.371Z,7.90
2023-01-10T09:54:30.723Z,7.70
2023-01-10T09:57:25.244Z,7.60
2023-01-10T10:00:19.224Z,7.50
2023-01-10T10:03:15.480Z,7.70
2023-01-10T10:06:11.692Z,7.80
2023-01-10T10:08:58.136Z,7.90
2023-01-10T10:11:43.941Z,8.40
2023-01-10T10:15:01.433Z,8.80
2023-01-10T10:18:21.004Z,8.80
2023-01-10T10:21:53.405Z,8.80
2023-01-10T10:25:25.160Z,8.40
2023-01-10T10:28:55.084Z,8.40
2023-01-10T10:31:59.438Z,8.50
2023-01-10T10:34:58.079Z,8.50
2023-01-10T10:37:50.138Z,8.20
2023-01-10T10:40:41.258Z,8.40
2023-01-10T10:43:37.919Z,8.30
2023-01-10T10:46:24.879Z,8.40
2023-01-10T10:49:49.305Z,8.30
2023-01-10T10:52:36.973Z,8.40
2023-01-10T10:55:31.166Z,8.40
2023-01-10T10:58:17.893Z,8.20
2023-01-10T11:01:03.838Z,8.00
2023-01-10T11:04:00.148Z,7.80
2023-01-10T11:06:51.836Z,7.70
2023-01-10T11:09:41.485Z,7.70
2023-01-10T11:12:35.249Z,7.90
2023-01-10T11:15:46.496Z,8.10
2023-01-10T11:18:33.657Z,8.00
2023-01-10T11:21:21.687Z,8.10
2023-01-10T11:24:35.939Z,8.00
2023-01-10T11:27:25.559Z,7.90
2023-01-10T11:30:21.193Z,7.90
2023-01-10T11:33:17.176Z,7.80
2023-01-10T11:36:06.412Z,7.70
2023-01-10T11:39:06.671Z,7.70
2023-01-10T11:41:56.915Z,7.80
2023-01-10T11:44:42.848Z,8.20
2023-01-10T11:47:41.694Z,8.60
2023-01-10T11:50:41.191Z,8.80
2023-01-10T11:53:47.719Z,9.20
2023-01-10T11:56:39.937Z,9.20
2023-01-10T11:59:29.864Z,9.50
2023-01-10T12:02:23.501Z,9.90
2023-01-10T12:05:19.925Z,9.80
2023-01-10T12:08:08.007Z,9.90
2023-01-10T12:11:01.829Z,9.70
2023-01-10T12:13:52.439Z,9.50
2023-01-10T12:16:39.698Z,9.40
2023-01-10T12:19:27.495Z,9.50
2023-01-10T12:22:18.022Z,10.00
2023-01-10T12:25:15.274Z,9.90
2023-01-10T12:28:04.211Z,9.50
2023-01-10T12:30:52.053Z,9.40
2023-01-10T12:34:13.541Z,9.40
2023-01-10T12:37:20.249Z,9.10
2023-01-10T12:40:42.102Z,8.80
2023-01-10T12:43:56.952Z,8.90
2023-01-10T12:47:09.229Z,8.90
2023-01-10T12:50:45.115Z,9.20
2023-01-10T12:53:36.286Z,9.40
2023-01-10T12:56:22.559Z,9.50
2023-01-10T12:59:39.235Z,9.90
2023-01-10T13:02:28.727Z,9.80
2023-01-10T13:05:26.124Z,9.60
2023-01-10T13:08:14.252Z,9.50
2023-01-10T13:11:01.753Z,9.40
2023-01-10T13:13:58.499Z,9.10
2023-01-10T13:17:02.579Z,9.30
2023-01-10T13:20:17.255Z,9.30
2023-01-10T13:23:24.612Z,9.40
2023-01-10T13:26:12.521Z,9.20
2023-01-10T13:29:00.789Z,9.00
2023-01-10T13:31:49.086Z,9.10
2023-01-10T13:34:38.573Z,8.90
2023-01-10T13:37:31.689Z,8.90
2023-01-10T13:40:31.932Z,8.90
2023-01-10T13:43:34.584Z,8.80
2023-01-10T13:46:20.145Z,8.80
2023-01-10T13:49:23.446Z,8.80
2023-01-10T13:52:32.139Z,8.70
2023-01-10T13:55:34.367Z,8.50
2023-01-10T13:58:45.708Z,8.50
2023-01-10T14:01:57.527Z,8.50
2023-01-10T14:04:50.975Z,8.60
2023-01-10T14:07:48.856Z,8.60
2023-01-10T14:10:34.987Z,8.60
2023-01-10T14:13:23.271Z,8.70
2023-01-10T14:16:28.299Z,8.70
2023-01-10T14:19:32.494Z,8.60
2023-01-10T14:22:31.765Z,8.40
2023-01-10T14:25:22.066Z,8.30
2023-01-10T14:28:27.605Z,8.00
2023-01-10T14:31:16.193Z,7.80
2023-01-10T14:34:06.036Z,7.60
2023-01-10T14:37:06.369Z,7.50
2023-01-10T14:39:56.205Z,7.50
2023-01-10T14:42:42.717Z,7.40
2023-01-10T14:45:34.604Z,7.40
2023-01-10T14:48:27.507Z,7.30
2023-01-10T14:51:23.828Z,7.10
2023-01-10T14:54:14.896Z,7.00
2023-01-10T14:57:00.605Z,6.90
2023-01-10T14:59:48.478Z,7.20
2023-01-10T15:20:31.088Z,7.30
2023-01-10T15:23:15.196Z,7.20
2023-01-10T15:26:04.645Z,7.00
2023-01-10T15:29:19.382Z,6.90
2023-01-10T15:32:23.516Z,6.90
2023-01-10T15:35:15.791Z,6.90
2023-01-10T15:38:20.346Z,7.00
2023-01-10T15:41:07.678Z,7.10
2023-01-10T15:43:56.327Z,7.30
2023-01-10T15:46:55.692Z,7.20
2023-01-10T15:49:52.158Z,7.20
2023-01-10T15:52:54.099Z,7.00
2023-01-10T15:55:53.673Z,6.90
2023-01-10T15:58:43.508Z,6.80
2023-01-10T16:01:31.201Z,6.80
2023-01-10T16:04:17.133Z,6.90
2023-01-10T16:07:09.077Z,7.10
2023-01-10T16:10:08.366Z,7.10
2023-01-10T16:13:27.494Z,7.30
2023-01-10T16:16:18.797Z,7.30
2023-01-10T16:19:04.581Z,7.40
2023-01-10T16:21:57.667Z,7.40
2023-01-10T16:24:43.715Z,7.30
2023-01-10T16:27:31.372Z,7.30
2023-01-10T16:30:32.005Z,7.20
2023-01-10T16:33:24.376Z,7.20
2023-01-10T16:36:18.826Z,7.20
2023-01-10T16:39:20.557Z,7.10
2023-01-10T16:42:27.368Z,7.20
2023-01-10T16:45:15.800Z,7.10
2023-01-10T16:48:01.500Z,7.10
2023-01-10T16:50:48.735Z,7.20
2023-01-10T16:53:34.083Z,7.20
2023-01-10T16:56:22.485Z,7.30
2023-01-10T16:59:10.888Z,7.20
2023-01-10T17:01:58.961Z,7.20
2023-01-10T17:04:45.035Z,7.20
2023-01-10T17:07:30.761Z,7.00
2023-01-10T17:10:16.429Z,7.00
2023-01-10T17:13:04.471Z,7.00
2023-01-10T17:15:53.411Z,7.10
2023-01-10T17:18:39.986Z,7.10
2023-01-10T17:21:26.733Z,7.10
2023-01-10T17:24:15.317Z,7.10
2023-01-10T17:27:03.313Z,7.00
2023-01-10T17:29:51.515Z,6.90
2023-01-10T17:32:38.802Z,6.80
2023-01-10T17:35:28.212Z,6.70
2023-01-10T17:38:18.330Z,6.50
2023-01-10T17:41:07.470Z,6.40
2023-01-10T17:43:55.395Z,6.30
2023-01-10T17:46:41.316Z,6.30
2023-01-10T17:49:27.262Z,6.30
2023-01-10T17:52:15.406Z,6.40
2023-01-10T17:55:01.093Z,6.40
2023-01-10T17:57:46.339Z,6.40
2023-01-10T18:00:33.845Z,6.50
2023-01-10T18:03:19.482Z,6.50
2023-01-10T18:06:07.693Z,6.50
2023-01-10T18:08:54.073Z,6.50
2023-01-10T18:11:39.951Z,6.60
2023-01-10T18:14:37.935Z,6.60
2023-01-10T18:17:24.360Z,6.60
2023-01-10T18:20:12.924Z,6.60
2023-01-10T18:23:16.807Z,6.60
2023-01-10T18:26:09.718Z,6.60
2023-01-10T18:28:57.017Z,6.60
2023-01-10T18:31:44.738Z,6.60
2023-01-10T18:34:32.765Z,6.50
2023-01-10T18:37:19.176Z,6.40
2023-01-10T18:40:05.491Z,6.20
2023-01-10T18:42:58.424Z,6.10
2023-01-10T18:45:48.461Z,6.00
2023-01-10T18:48:34.416Z,5.90
2023-01-10T18:51:23.897Z,5.80
2023-01-10T18:54:10.131Z,5.70
2023-01-10T18:56:58.440Z,5.60
2023-01-10T18:59:43.626Z,5.50
2023-01-10T19:02:29.935Z,5.40
2023-01-10T19:05:15.793Z,5.20
2023-01-10T19:08:03.695Z,5.20
2023-01-10T19:11:11.831Z,5.10
2023-01-10T19:13:55.413Z,5.00
2023-01-10T19:16:41.312Z,5.00
2023-01-10T19:19:26.828Z,4.80
2023-01-10T19:22:14.552Z,4.80
2023-01-10T19:25:00.458Z,4.80
2023-01-10T19:27:46.218Z,4.70
2023-01-10T19:30:31.637Z,4.70
2023-01-10T19:33:17.254Z,4.70
2023-01-10T19:36:11.852Z,4.60
2023-01-10T19:39:00.609Z,4.70
2023-01-10T19:41:46.576Z,4.70
2023-01-10T19:44:32.035Z,4.60
2023-01-10T19:47:17.876Z,4.50
2023-01-10T19:50:03.840Z,4.40
2023-01-10T19:52:49.666Z,4.40
2023-01-10T19:55:37.320Z,4.40
2023-01-10T19:58:23.165Z,4.30
2023-01-10T20:01:15.094Z,4.30
2023-01-10T20:04:03.261Z,4.30
2023-01-10T20:06:48.673Z,4.30
2023-01-10T20:09:34.286Z,4.20
2023-01-10T20:12:20.848Z,4.20
2023-01-10T20:15:06.987Z,4.20
2023-01-10T20:17:52.173Z,4.10
2023-01-10T20:20:41.392Z,4.20
2023-01-10T20:23:27.545Z,4.20
2023-01-10T20:26:17.421Z,4.20
2023-01-10T20:29:04.420Z,4.20
2023-01-10T20:31:55.713Z,4.10
2023-01-10T20:34:43.003Z,4.10
2023-01-10T20:37:28.234Z,4.10
2023-01-10T20:40:17.204Z,4.20
2023-01-10T20:43:02.803Z,4.20
2023-01-10T20:45:48.656Z,4.20
2023-01-10T20:48:36.290Z,4.10
2023-01-10T20:51:24.344Z,4.20
2023-01-10T20:54:15.251Z,4.10
2023-01-10T20:57:01.202Z,4.10
2023-01-10T20:59:46.650Z,4.20
2023-01-10T21:02:32.460Z,4.20
2023-01-10T21:05:18.070Z,4.20
2023-01-10T21:08:03.491Z,4.20
2023-01-10T21:10:50.535Z,4.10
2023-01-10T21:13:35.929Z,4.10
2023-01-10T21:16:22.598Z,4.10
2023-01-10T21:19:10.413Z,4.10
2023-01-10T21:21:58.176Z,4.00
2023-01-10T21:24:43.400Z,3.90
2023-01-10T21:27:31.949Z,4.00
2023-01-10T21:30:21.010Z,3.90
2023-01-10T21:33:08.013Z,3.80
2023-01-10T21:35:58.599Z,3.90
2023-01-10T21:38:45.025Z,4.00
2023-01-10T21:41:49.013Z,4.00
2023-01-10T21:44:34.629Z,3.90
2023-01-10T21:47:20.063Z,3.90
2023-01-10T21:50:10.110Z,3.90
2023-01-10T21:52:55.545Z,3.90
2023-01-10T21:55:44.085Z,3.90
2023-01-10T21:58:29.786Z,4.00
2023-01-10T22:01:15.808Z,3.90
2023-01-10T22:04:04.705Z,3.90
2023-01-10T22:06:50.736Z,4.00
2023-01-10T22:09:38.916Z,4.10
2023-01-10T22:12:25.426Z,4.00
2023-01-10T22:15:11.781Z,4.10
2023-01-10T22:18:01.240Z,4.30
2023-01-10T22:20:49.119Z,4.30
2023-01-10T22:23:34.793Z,4.30
2023-01-10T22:26:20.845Z,4.30
2023-01-10T22:29:06.672Z,4.30
2023-01-10T22:31:52.508Z,4.50
2023-01-10T22:34:40.839Z,4.40
2023-01-10T22:37:26.210Z,4.50
2023-01-10T22:40:12.437Z,4.50
2023-01-10T22:43:00.741Z,4.50
2023-01-10T22:45:46.896Z,4.50
2023-01-10T22:48:34.306Z,4.40
2023-01-10T22:51:21.431Z,4.40
2023-01-10T22:54:07.081Z,4.40
2023-01-10T22:56:52.477Z,4.40
2023-01-10T22:59:37.936Z,4.40
2023-01-10T23:02:23.199Z,4.40
2023-01-10T23:05:09.002Z,4.40
2023-01-10T23:07:54.990Z,4.50
2023-01-10T23:10:40.704Z,4.50
2023-01-10T23:13:26.191Z,4.60
2023-01-10T23:16:22.074Z,4.60
2023-01-10T23:19:10.418Z,4.60
2023-01-10T23:21:55.941Z,4.60
2023-01-10T23:24:41.664Z,4.60
2023-01-10T23:27:27.218Z,4.70
2023-01-10T23:30:13.536Z,4.60
2023-01-10T23:32:58.752Z,4.60
2023-01-10T23:35:49.109Z,4.60
2023-01-10T23:38:34.520Z,4.60
2023-01-10T23:41:22.120Z,4.70
2023-01-10T23:44:08.460Z,4.70
2023-01-10T23:46:59.090Z,4.70
2023-01-10T23:49:44.607Z,4.80
2023-01-10T23:52:32.022Z,4.80
2023-01-10T23:55:19.882Z,4.90
2023-01-10T23:58:05.504Z,4.90
